Pagrindinis puslapis
METAR-TAF:

METAR-TAF

Oro uostai :

São Pedro da Aldeia, Rio de Janeiro, Brazilija

platuma: 22-49S, ilguma: 042-06W, Aukštis: 10 m

Dabartinis oras

Ataskaita buvo paskelbta 26 minutes, ne 23:00 UTC
Vėjas 5 kt iš Vakarų/Pietvakarių
Temperatūra 26°C
Drėgmė 94%
Slėgis 1012 hPa
Matomumas 10 km arba daugiau
Išsisklaidę debesys ne aukštis 1400 ft

METAR: SBES 212300Z 25005KT 9999 SCT014 26/25 Q1012

Laikas: 20:26 (23:26 UTC)


TAF: trūkstamas

Orai ataskaitas ir orų prognozės (METAR, TAF).

turimą stotys yra geltonos ir raudonos taškus žemėlapyje.

Perkelti pele per norėdami pamatyti stoties vardą.

Tada spustelėkite, norėdami matyti oro stebėjimo ir prognozės.

Norėdami pakeisti žemėlapį: spustelėkite ant žalios mygtukų su juodo kryžiaus žemyn,; žalią mygtuką su brūkšneliu, jei norite nutolinti; arba žalių rodyklių gretimoms žemėlapius.


METAR-TAF: